createdAt,value
2022-08-03T00:02:48.991Z,20.20
2022-08-03T00:07:56.533Z,20.17
2022-08-03T00:13:01.553Z,20.14
2022-08-03T00:18:07.732Z,19.79
2022-08-03T00:23:15.501Z,19.58
2022-08-03T00:28:20.411Z,19.18
2022-08-03T00:33:25.592Z,19.14
2022-08-03T00:38:35.704Z,18.99
2022-08-03T00:43:40.648Z,19.21
2022-08-03T00:48:45.813Z,18.98
2022-08-03T00:53:53.837Z,18.63
2022-08-03T00:59:01.271Z,18.90
2022-08-03T01:04:06.473Z,18.87
2022-08-03T01:09:25.353Z,18.63
2022-08-03T01:14:37.428Z,18.92
2022-08-03T01:19:51.887Z,18.75
2022-08-03T01:25:05.957Z,18.78
2022-08-03T01:30:15.234Z,18.63
2022-08-03T01:35:28.128Z,18.68
2022-08-03T01:40:36.528Z,18.73
2022-08-03T01:45:45.090Z,18.61
2022-08-03T01:50:52.095Z,18.45
2022-08-03T01:55:58.561Z,18.18
2022-08-03T02:01:07.206Z,18.41
2022-08-03T02:06:59.038Z,18.07
2022-08-03T02:11:40.734Z,18.45
2022-08-03T02:16:51.979Z,18.16
2022-08-03T02:22:01.312Z,18.06
2022-08-03T02:27:10.965Z,18.16
2022-08-03T02:32:34.137Z,18.08
2022-08-03T02:37:49.716Z,17.92
2022-08-03T02:42:58.692Z,18.05
2022-08-03T02:48:08.861Z,18.24
2022-08-03T02:53:15.572Z,17.77
2022-08-03T02:58:22.649Z,18.15
2022-08-03T03:03:33.175Z,18.09
2022-08-03T03:08:50.605Z,17.86
2022-08-03T03:13:56.885Z,17.59
2022-08-03T03:19:05.542Z,17.45
2022-08-03T03:24:13.453Z,17.40
2022-08-03T03:29:19.014Z,17.45
2022-08-03T03:34:27.020Z,17.57
2022-08-03T03:39:33.812Z,17.34
2022-08-03T03:44:38.808Z,17.33
2022-08-03T03:49:46.724Z,17.47
2022-08-03T03:54:56.409Z,17.52
2022-08-03T04:00:06.246Z,17.83
2022-08-03T04:05:27.455Z,17.86
2022-08-03T04:10:49.253Z,17.98
2022-08-03T04:15:56.609Z,17.91
2022-08-03T04:21:06.975Z,18.07
2022-08-03T04:26:15.257Z,18.39
2022-08-03T04:31:23.502Z,18.71
2022-08-03T04:36:36.943Z,18.80
2022-08-03T04:42:04.384Z,18.73
2022-08-03T04:47:09.339Z,19.25
2022-08-03T04:52:17.544Z,20.41
2022-08-03T04:57:23.933Z,21.29
2022-08-03T05:02:28.890Z,21.15
2022-08-03T05:07:36.826Z,21.72
2022-08-03T05:12:41.932Z,22.44
2022-08-03T05:17:50.037Z,22.46
2022-08-03T05:22:57.569Z,23.35
2022-08-03T05:28:02.566Z,23.62
2022-08-03T05:33:09.289Z,24.57
2022-08-03T05:38:23.857Z,24.36
2022-08-03T05:43:34.790Z,25.26
2022-08-03T05:48:41.523Z,26.72
2022-08-03T05:53:50.020Z,28.00
2022-08-03T05:58:55.925Z,28.62
2022-08-03T06:04:02.496Z,28.62
2022-08-03T06:09:12.209Z,28.53
2022-08-03T06:14:17.601Z,28.91
2022-08-03T06:19:24.691Z,29.14
2022-08-03T06:24:33.170Z,30.62
2022-08-03T06:29:39.697Z,32.00
2022-08-03T06:34:44.913Z,31.88
2022-08-03T06:39:55.555Z,32.87
2022-08-03T06:45:00.709Z,32.86
2022-08-03T06:50:16.206Z,32.31
2022-08-03T06:55:26.401Z,31.16
2022-08-03T07:00:44.569Z,32.03
2022-08-03T07:05:51.443Z,32.14
2022-08-03T07:10:59.684Z,32.80
2022-08-03T07:16:08.917Z,29.91
2022-08-03T07:21:16.824Z,29.70
2022-08-03T07:26:24.902Z,29.18
2022-08-03T07:31:35.083Z,29.46
2022-08-03T07:36:40.105Z,32.66
2022-08-03T07:41:47.870Z,33.12
2022-08-03T07:46:53.621Z,32.04
2022-08-03T07:52:10.822Z,32.94
2022-08-03T07:57:18.389Z,31.62
2022-08-03T08:02:23.312Z,30.43
2022-08-03T08:07:28.396Z,32.30
2022-08-03T08:12:36.219Z,32.21
2022-08-03T08:17:48.068Z,30.87
2022-08-03T08:22:54.637Z,31.36
2022-08-03T08:28:30.620Z,30.61
2022-08-03T08:38:55.680Z,30.05
2022-08-03T08:44:03.731Z,30.74
2022-08-03T08:49:15.735Z,31.87
2022-08-03T08:54:57.162Z,32.45
2022-08-03T09:00:14.741Z,32.46
2022-08-03T09:05:36.256Z,32.47
2022-08-03T09:10:48.157Z,31.39
2022-08-03T09:16:13.049Z,31.72
2022-08-03T09:21:36.242Z,31.83
2022-08-03T09:26:41.536Z,31.68
2022-08-03T09:31:53.999Z,32.48
2022-08-03T09:37:00.005Z,32.62
2022-08-03T09:42:09.947Z,32.10
2022-08-03T09:47:19.039Z,31.51
2022-08-03T09:52:37.945Z,31.92
2022-08-03T09:57:46.830Z,32.67
2022-08-03T10:03:08.159Z,32.97
2022-08-03T10:08:18.239Z,33.59
2022-08-03T10:13:24.519Z,33.46
2022-08-03T10:18:32.204Z,33.17
2022-08-03T10:23:38.580Z,33.51
2022-08-03T10:28:49.493Z,33.35
2022-08-03T10:34:00.898Z,33.36
2022-08-03T10:39:16.487Z,33.15
2022-08-03T10:44:23.234Z,34.09
2022-08-03T10:49:34.617Z,33.94
2022-08-03T10:55:07.859Z,33.20
2022-08-03T11:00:17.544Z,34.02
2022-08-03T11:05:33.188Z,32.94
2022-08-03T11:10:38.655Z,33.21
2022-08-03T11:15:46.742Z,33.20
2022-08-03T11:20:56.115Z,33.88
2022-08-03T11:26:19.712Z,33.89
2022-08-03T11:31:54.540Z,33.89
2022-08-03T11:37:33.223Z,33.83
2022-08-03T11:42:48.407Z,34.01
2022-08-03T11:47:58.686Z,33.47
2022-08-03T11:53:06.773Z,33.68
2022-08-03T11:59:18.813Z,33.41
2022-08-03T12:03:38.288Z,34.54
2022-08-03T12:14:50.375Z,34.08
2022-08-03T12:19:45.767Z,33.92
2022-08-03T12:24:53.884Z,33.56
2022-08-03T12:30:01.879Z,33.47
2022-08-03T12:35:07.732Z,33.53
2022-08-03T12:40:20.585Z,34.21
2022-08-03T12:45:28.451Z,33.79
2022-08-03T12:50:35.686Z,33.73
2022-08-03T12:56:05.123Z,33.24
2022-08-03T13:01:13.672Z,33.97
2022-08-03T13:06:20.580Z,33.58
2022-08-03T13:11:55.770Z,34.33
2022-08-03T13:16:55.420Z,34.38
2022-08-03T13:22:04.720Z,34.50
2022-08-03T13:28:03.317Z,34.39
2022-08-03T13:32:37.970Z,34.29
2022-08-03T13:37:42.959Z,34.91
2022-08-03T13:42:56.421Z,34.95
2022-08-03T13:48:01.451Z,34.85
2022-08-03T13:53:06.476Z,34.23
2022-08-03T13:58:14.224Z,34.50
2022-08-03T14:03:20.471Z,34.63
2022-08-03T14:08:25.347Z,34.85
2022-08-03T14:13:32.892Z,33.84
2022-08-03T14:18:37.848Z,34.52
2022-08-03T14:23:46.494Z,34.62
2022-08-03T14:28:54.483Z,34.23
2022-08-03T14:34:02.150Z,33.84
2022-08-03T14:39:07.528Z,34.13
2022-08-03T14:44:15.164Z,34.60
2022-08-03T14:50:38.284Z,34.03
2022-08-03T14:54:44.956Z,34.18
2022-08-03T14:59:55.810Z,33.90
2022-08-03T15:05:02.346Z,34.01
2022-08-03T15:10:08.165Z,34.36
2022-08-03T15:15:15.947Z,34.14
2022-08-03T15:20:36.446Z,34.05
2022-08-03T15:26:32.048Z,34.06
2022-08-03T15:31:18.984Z,34.54
2022-08-03T15:36:24.544Z,34.83
2022-08-03T15:41:29.586Z,34.50
2022-08-03T15:46:37.027Z,34.40
2022-08-03T15:51:42.009Z,34.26
2022-08-03T15:56:46.897Z,33.88
2022-08-03T16:01:56.784Z,34.35
2022-08-03T16:07:01.965Z,34.11
2022-08-03T16:12:15.665Z,34.38
2022-08-03T16:17:24.700Z,34.29
2022-08-03T16:22:30.127Z,33.45
2022-08-03T16:28:07.201Z,34.06
2022-08-03T16:33:17.312Z,34.00
2022-08-03T16:38:23.541Z,34.21
2022-08-03T16:43:28.836Z,33.76
2022-08-03T16:48:36.947Z,33.97
2022-08-03T16:54:05.377Z,33.91
2022-08-03T16:59:07.486Z,33.85
2022-08-03T17:04:15.569Z,33.83
2022-08-03T17:09:21.828Z,33.70
2022-08-03T17:14:28.269Z,33.55
2022-08-03T17:19:42.386Z,33.32
2022-08-03T17:24:54.746Z,33.46
2022-08-03T17:30:03.950Z,33.08
2022-08-03T17:35:14.794Z,32.98
2022-08-03T17:40:20.245Z,32.67
2022-08-03T17:45:52.165Z,32.64
2022-08-03T17:51:02.487Z,32.46
2022-08-03T17:56:44.970Z,32.33
2022-08-03T18:02:09.522Z,32.17
2022-08-03T18:07:40.911Z,32.04
2022-08-03T18:12:51.805Z,31.84
2022-08-03T18:18:02.606Z,31.39
2022-08-03T18:23:36.212Z,31.24
2022-08-03T18:28:40.912Z,31.18
2022-08-03T18:34:19.922Z,30.85
2022-08-03T18:39:17.360Z,30.53
2022-08-03T18:44:46.563Z,30.32
2022-08-03T18:50:00.183Z,30.10
2022-08-03T18:55:20.228Z,30.29
2022-08-03T19:00:42.319Z,30.16
2022-08-03T19:06:02.616Z,30.08
2022-08-03T19:11:28.084Z,29.35
2022-08-03T19:16:38.733Z,29.58
2022-08-03T19:21:44.835Z,29.37
2022-08-03T19:26:55.972Z,28.79
2022-08-03T19:32:04.103Z,28.37
2022-08-03T19:37:15.422Z,28.22
2022-08-03T19:42:32.001Z,28.78
2022-08-03T19:47:42.815Z,28.48
2022-08-03T19:52:50.557Z,28.37
2022-08-03T19:58:01.165Z,27.99
2022-08-03T20:03:22.121Z,27.72
2022-08-03T20:08:29.948Z,28.03
2022-08-03T20:13:39.165Z,27.58
2022-08-03T20:18:44.275Z,27.34
2022-08-03T20:24:02.847Z,26.99
2022-08-03T20:29:26.003Z,26.60
2022-08-03T20:34:51.014Z,26.68
2022-08-03T20:39:58.361Z,26.60
2022-08-03T20:45:15.162Z,26.58
2022-08-03T20:50:32.559Z,26.05
2022-08-03T20:55:47.877Z,25.81
2022-08-03T21:01:06.322Z,25.96
2022-08-03T21:06:14.969Z,25.77
2022-08-03T21:11:25.050Z,25.59
2022-08-03T21:16:36.919Z,25.28
2022-08-03T21:21:42.907Z,25.27
2022-08-03T21:26:51.401Z,25.17
2022-08-03T21:32:02.128Z,24.75
2022-08-03T21:37:07.324Z,24.63
2022-08-03T21:42:12.234Z,24.48
2022-08-03T21:47:21.411Z,24.78
2022-08-03T21:52:27.229Z,24.50
2022-08-03T21:57:34.092Z,24.38
2022-08-03T22:02:53.026Z,24.31
2022-08-03T22:08:00.705Z,24.03
2022-08-03T22:13:05.649Z,24.03
2022-08-03T22:18:13.846Z,23.98
2022-08-03T22:23:21.392Z,23.89
2022-08-03T22:28:31.809Z,23.81
2022-08-03T22:33:40.820Z,23.97
2022-08-03T22:38:46.395Z,23.87
2022-08-03T22:43:52.311Z,23.90
2022-08-03T22:49:00.725Z,23.79
2022-08-03T22:54:05.680Z,23.43
2022-08-03T22:59:39.089Z,23.47
2022-08-03T23:04:42.178Z,23.31
2022-08-03T23:09:50.072Z,23.34
2022-08-03T23:14:58.231Z,23.29
2022-08-03T23:20:09.074Z,23.41
2022-08-03T23:25:14.642Z,23.40
2022-08-03T23:30:19.858Z,23.24
2022-08-03T23:36:28.568Z,23.21
2022-08-03T23:41:06.933Z,23.08
2022-08-03T23:46:13.477Z,23.05
2022-08-03T23:51:36.019Z,23.14
2022-08-03T23:56:52.228Z,23.05
